sensor_id;sensor_type;location;lat;lon;timestamp;temperature;humidity
16964;DHT22;8598;50.508;10.436;2022-12-08T00:00:11;2.20;99.90
16964;DHT22;8598;50.508;10.436;2022-12-08T00:02:39;2.10;99.90
16964;DHT22;8598;50.508;10.436;2022-12-08T00:05:09;2.10;99.90
16964;DHT22;8598;50.508;10.436;2022-12-08T00:07:53;2.20;99.90
16964;DHT22;8598;50.508;10.436;2022-12-08T00:10:37;2.20;99.90
16964;DHT22;8598;50.508;10.436;2022-12-08T00:13:04;2.20;99.90
16964;DHT22;8598;50.508;10.436;2022-12-08T00:15:30;2.20;99.90
16964;DHT22;8598;50.508;10.436;2022-12-08T00:17:58;2.20;99.90
16964;DHT22;8598;50.508;10.436;2022-12-08T00:20:26;2.30;99.90
16964;DHT22;8598;50.508;10.436;2022-12-08T00:22:52;2.30;99.90
16964;DHT22;8598;50.508;10.436;2022-12-08T00:25:19;2.20;99.90
16964;DHT22;8598;50.508;10.436;2022-12-08T00:27:46;2.20;99.90
16964;DHT22;8598;50.508;10.436;2022-12-08T00:30:12;2.20;99.90
16964;DHT22;8598;50.508;10.436;2022-12-08T00:32:39;2.20;99.90
16964;DHT22;8598;50.508;10.436;2022-12-08T00:35:08;2.20;99.90
16964;DHT22;8598;50.508;10.436;2022-12-08T00:37:34;2.20;99.90
16964;DHT22;8598;50.508;10.436;2022-12-08T00:40:01;2.20;99.90
16964;DHT22;8598;50.508;10.436;2022-12-08T00:42:28;2.10;99.90
16964;DHT22;8598;50.508;10.436;2022-12-08T00:44:54;2.20;99.90
16964;DHT22;8598;50.508;10.436;2022-12-08T00:47:21;2.20;99.90
16964;DHT22;8598;50.508;10.436;2022-12-08T00:49:48;2.20;99.90
16964;DHT22;8598;50.508;10.436;2022-12-08T00:52:16;2.30;99.90
16964;DHT22;8598;50.508;10.436;2022-12-08T00:54:43;2.20;99.90
16964;DHT22;8598;50.508;10.436;2022-12-08T00:57:09;2.30;99.90
16964;DHT22;8598;50.508;10.436;2022-12-08T00:59:36;2.30;99.90
16964;DHT22;8598;50.508;10.436;2022-12-08T01:02:03;2.30;99.90
16964;DHT22;8598;50.508;10.436;2022-12-08T01:04:30;2.30;99.90
16964;DHT22;8598;50.508;10.436;2022-12-08T01:06:57;2.30;99.90
16964;DHT22;8598;50.508;10.436;2022-12-08T01:09:25;2.30;99.90
16964;DHT22;8598;50.508;10.436;2022-12-08T01:11:51;2.30;99.90
16964;DHT22;8598;50.508;10.436;2022-12-08T01:14:18;2.30;99.90
16964;DHT22;8598;50.508;10.436;2022-12-08T01:16:45;2.30;99.90
16964;DHT22;8598;50.508;10.436;2022-12-08T01:19:13;2.30;99.90
16964;DHT22;8598;50.508;10.436;2022-12-08T01:21:43;2.30;99.90
16964;DHT22;8598;50.508;10.436;2022-12-08T01:24:11;2.30;99.90
16964;DHT22;8598;50.508;10.436;2022-12-08T01:26:39;2.40;99.90
16964;DHT22;8598;50.508;10.436;2022-12-08T01:29:07;2.40;99.90
16964;DHT22;8598;50.508;10.436;2022-12-08T01:31:34;2.40;99.90
16964;DHT22;8598;50.508;10.436;2022-12-08T01:34:00;2.40;99.90
16964;DHT22;8598;50.508;10.436;2022-12-08T01:36:29;2.40;99.90
16964;DHT22;8598;50.508;10.436;2022-12-08T01:38:57;2.40;99.90
16964;DHT22;8598;50.508;10.436;2022-12-08T01:41:27;2.40;99.90
16964;DHT22;8598;50.508;10.436;2022-12-08T01:43:58;2.40;99.90
16964;DHT22;8598;50.508;10.436;2022-12-08T01:46:27;2.40;99.90
16964;DHT22;8598;50.508;10.436;2022-12-08T01:48:58;2.40;99.90
16964;DHT22;8598;50.508;10.436;2022-12-08T01:51:26;2.40;99.90
16964;DHT22;8598;50.508;10.436;2022-12-08T01:53:54;2.40;99.90
16964;DHT22;8598;50.508;10.436;2022-12-08T01:56:26;2.40;99.90
16964;DHT22;8598;50.508;10.436;2022-12-08T01:58:57;2.40;99.90
16964;DHT22;8598;50.508;10.436;2022-12-08T02:01:23;2.40;99.90
16964;DHT22;8598;50.508;10.436;2022-12-08T02:03:54;2.40;99.90
16964;DHT22;8598;50.508;10.436;2022-12-08T02:06:22;2.40;99.90
16964;DHT22;8598;50.508;10.436;2022-12-08T02:08:49;2.40;99.90
16964;DHT22;8598;50.508;10.436;2022-12-08T02:11:16;2.50;99.90
16964;DHT22;8598;50.508;10.436;2022-12-08T02:13:44;2.50;99.90
16964;DHT22;8598;50.508;10.436;2022-12-08T02:16:20;2.50;99.90
16964;DHT22;8598;50.508;10.436;2022-12-08T02:19:01;2.50;99.90
16964;DHT22;8598;50.508;10.436;2022-12-08T02:21:37;2.50;99.90
16964;DHT22;8598;50.508;10.436;2022-12-08T02:24:11;2.50;99.90
16964;DHT22;8598;50.508;10.436;2022-12-08T02:27:04;2.50;99.90
16964;DHT22;8598;50.508;10.436;2022-12-08T02:29:57;2.50;99.90
16964;DHT22;8598;50.508;10.436;2022-12-08T02:35:52;2.50;99.90
16964;DHT22;8598;50.508;10.436;2022-12-08T02:38:32;2.50;99.90
16964;DHT22;8598;50.508;10.436;2022-12-08T02:41:14;2.50;99.90
16964;DHT22;8598;50.508;10.436;2022-12-08T02:43:45;2.50;99.90
16964;DHT22;8598;50.508;10.436;2022-12-08T02:46:16;2.50;99.90
16964;DHT22;8598;50.508;10.436;2022-12-08T02:48:46;2.50;99.90
16964;DHT22;8598;50.508;10.436;2022-12-08T02:51:15;2.50;99.90
16964;DHT22;8598;50.508;10.436;2022-12-08T02:53:42;2.50;99.90
16964;DHT22;8598;50.508;10.436;2022-12-08T02:56:17;3.50;99.90
16964;DHT22;8598;50.508;10.436;2022-12-08T02:59:01;2.50;99.90
16964;DHT22;8598;50.508;10.436;2022-12-08T03:01:49;2.50;99.90
16964;DHT22;8598;50.508;10.436;2022-12-08T03:04:25;2.50;99.90
16964;DHT22;8598;50.508;10.436;2022-12-08T03:06:59;2.50;99.90
16964;DHT22;8598;50.508;10.436;2022-12-08T03:09:33;2.50;99.90
16964;DHT22;8598;50.508;10.436;2022-12-08T03:12:05;2.50;99.90
16964;DHT22;8598;50.508;10.436;2022-12-08T03:14:35;2.50;99.90
16964;DHT22;8598;50.508;10.436;2022-12-08T03:17:03;2.50;99.90
16964;DHT22;8598;50.508;10.436;2022-12-08T03:19:34;2.50;99.90
16964;DHT22;8598;50.508;10.436;2022-12-08T03:22:04;2.50;99.90
16964;DHT22;8598;50.508;10.436;2022-12-08T03:24:34;2.50;99.90
16964;DHT22;8598;50.508;10.436;2022-12-08T03:27:03;2.40;99.90
16964;DHT22;8598;50.508;10.436;2022-12-08T03:29:34;2.50;99.90
16964;DHT22;8598;50.508;10.436;2022-12-08T03:32:07;2.50;99.90
16964;DHT22;8598;50.508;10.436;2022-12-08T03:34:35;2.50;99.90
16964;DHT22;8598;50.508;10.436;2022-12-08T03:37:05;2.40;99.90
16964;DHT22;8598;50.508;10.436;2022-12-08T03:39:32;2.40;99.90
16964;DHT22;8598;50.508;10.436;2022-12-08T03:41:58;2.40;99.90
16964;DHT22;8598;50.508;10.436;2022-12-08T03:44:25;2.40;99.90
16964;DHT22;8598;50.508;10.436;2022-12-08T03:46:52;2.40;99.90
16964;DHT22;8598;50.508;10.436;2022-12-08T03:49:19;2.40;99.90
16964;DHT22;8598;50.508;10.436;2022-12-08T03:51:45;2.40;99.90
16964;DHT22;8598;50.508;10.436;2022-12-08T03:54:13;2.40;99.90
16964;DHT22;8598;50.508;10.436;2022-12-08T03:56:40;2.50;99.90
16964;DHT22;8598;50.508;10.436;2022-12-08T03:59:07;2.40;99.90
16964;DHT22;8598;50.508;10.436;2022-12-08T04:01:34;2.40;99.90
16964;DHT22;8598;50.508;10.436;2022-12-08T04:04:01;2.40;99.90
16964;DHT22;8598;50.508;10.436;2022-12-08T04:06:28;2.40;99.90
16964;DHT22;8598;50.508;10.436;2022-12-08T04:08:55;2.40;99.90
16964;DHT22;8598;50.508;10.436;2022-12-08T04:11:23;2.40;99.90
16964;DHT22;8598;50.508;10.436;2022-12-08T04:13:49;2.40;99.90
16964;DHT22;8598;50.508;10.436;2022-12-08T04:16:18;2.40;99.90
16964;DHT22;8598;50.508;10.436;2022-12-08T04:18:46;2.40;99.90
16964;DHT22;8598;50.508;10.436;2022-12-08T04:21:13;2.40;99.90
16964;DHT22;8598;50.508;10.436;2022-12-08T04:23:40;2.40;99.90
16964;DHT22;8598;50.508;10.436;2022-12-08T04:26:07;2.40;99.90
16964;DHT22;8598;50.508;10.436;2022-12-08T04:28:36;2.40;99.90
16964;DHT22;8598;50.508;10.436;2022-12-08T04:31:03;2.40;99.90
16964;DHT22;8598;50.508;10.436;2022-12-08T04:33:30;2.40;99.90
16964;DHT22;8598;50.508;10.436;2022-12-08T04:35:56;2.40;99.90
16964;DHT22;8598;50.508;10.436;2022-12-08T04:38:23;2.40;99.90
16964;DHT22;8598;50.508;10.436;2022-12-08T04:40:50;2.40;99.90
16964;DHT22;8598;50.508;10.436;2022-12-08T04:43:17;2.40;99.90
16964;DHT22;8598;50.508;10.436;2022-12-08T04:45:45;2.40;99.90
16964;DHT22;8598;50.508;10.436;2022-12-08T04:48:12;2.40;99.90
16964;DHT22;8598;50.508;10.436;2022-12-08T04:50:40;2.40;99.90
16964;DHT22;8598;50.508;10.436;2022-12-08T04:53:08;2.40;99.90
16964;DHT22;8598;50.508;10.436;2022-12-08T04:55:37;2.40;99.90
16964;DHT22;8598;50.508;10.436;2022-12-08T04:58:04;2.40;99.90
16964;DHT22;8598;50.508;10.436;2022-12-08T05:00:31;2.40;99.90
16964;DHT22;8598;50.508;10.436;2022-12-08T05:02:59;2.40;99.90
16964;DHT22;8598;50.508;10.436;2022-12-08T05:05:26;2.40;99.90
16964;DHT22;8598;50.508;10.436;2022-12-08T05:07:52;2.40;99.90
16964;DHT22;8598;50.508;10.436;2022-12-08T05:10:19;2.40;99.90
16964;DHT22;8598;50.508;10.436;2022-12-08T05:12:46;2.40;99.90
16964;DHT22;8598;50.508;10.436;2022-12-08T05:15:12;2.40;99.90
16964;DHT22;8598;50.508;10.436;2022-12-08T05:17:39;2.40;99.90
16964;DHT22;8598;50.508;10.436;2022-12-08T05:20:09;2.50;99.90
16964;DHT22;8598;50.508;10.436;2022-12-08T05:22:36;2.50;99.90
16964;DHT22;8598;50.508;10.436;2022-12-08T05:25:03;2.50;99.90
16964;DHT22;8598;50.508;10.436;2022-12-08T05:27:29;2.50;99.90
16964;DHT22;8598;50.508;10.436;2022-12-08T05:29:56;2.50;99.90
16964;DHT22;8598;50.508;10.436;2022-12-08T05:32:23;2.50;99.90
16964;DHT22;8598;50.508;10.436;2022-12-08T05:34:50;2.50;99.90
16964;DHT22;8598;50.508;10.436;2022-12-08T05:37:18;2.50;99.90
16964;DHT22;8598;50.508;10.436;2022-12-08T05:39:45;2.50;99.90
16964;DHT22;8598;50.508;10.436;2022-12-08T05:42:12;2.50;99.90
16964;DHT22;8598;50.508;10.436;2022-12-08T05:44:38;2.50;99.90
16964;DHT22;8598;50.508;10.436;2022-12-08T05:47:05;2.50;99.90
16964;DHT22;8598;50.508;10.436;2022-12-08T05:49:32;2.40;99.90
16964;DHT22;8598;50.508;10.436;2022-12-08T05:51:59;2.40;99.90
16964;DHT22;8598;50.508;10.436;2022-12-08T05:54:27;2.40;99.90
16964;DHT22;8598;50.508;10.436;2022-12-08T05:56:54;2.40;99.90
16964;DHT22;8598;50.508;10.436;2022-12-08T05:59:20;2.40;99.90
16964;DHT22;8598;50.508;10.436;2022-12-08T06:01:47;2.40;99.90
16964;DHT22;8598;50.508;10.436;2022-12-08T06:04:14;2.50;99.90
16964;DHT22;8598;50.508;10.436;2022-12-08T06:06:40;2.40;99.90
16964;DHT22;8598;50.508;10.436;2022-12-08T06:09:07;2.40;99.90
16964;DHT22;8598;50.508;10.436;2022-12-08T06:11:35;2.40;99.90
16964;DHT22;8598;50.508;10.436;2022-12-08T06:14:02;2.40;99.90
16964;DHT22;8598;50.508;10.436;2022-12-08T06:16:29;2.40;99.90
16964;DHT22;8598;50.508;10.436;2022-12-08T06:18:56;2.40;99.90
16964;DHT22;8598;50.508;10.436;2022-12-08T06:21:23;2.40;99.90
16964;DHT22;8598;50.508;10.436;2022-12-08T06:23:51;2.40;99.90
16964;DHT22;8598;50.508;10.436;2022-12-08T06:26:19;2.40;99.90
16964;DHT22;8598;50.508;10.436;2022-12-08T06:28:47;2.40;99.90
16964;DHT22;8598;50.508;10.436;2022-12-08T06:31:16;2.50;99.90
16964;DHT22;8598;50.508;10.436;2022-12-08T06:33:43;2.40;99.90
16964;DHT22;8598;50.508;10.436;2022-12-08T06:36:11;2.40;99.90
16964;DHT22;8598;50.508;10.436;2022-12-08T06:38:38;2.50;99.90
16964;DHT22;8598;50.508;10.436;2022-12-08T06:41:06;2.40;99.90
16964;DHT22;8598;50.508;10.436;2022-12-08T06:43:33;2.50;99.90
16964;DHT22;8598;50.508;10.436;2022-12-08T06:46:04;2.40;99.90
16964;DHT22;8598;50.508;10.436;2022-12-08T06:48:31;2.40;99.90
16964;DHT22;8598;50.508;10.436;2022-12-08T06:51:05;2.40;99.90
16964;DHT22;8598;50.508;10.436;2022-12-08T06:53:32;2.40;99.90
16964;DHT22;8598;50.508;10.436;2022-12-08T06:55:59;2.40;99.90
16964;DHT22;8598;50.508;10.436;2022-12-08T06:58:25;2.40;99.90
16964;DHT22;8598;50.508;10.436;2022-12-08T07:00:52;2.40;99.90
16964;DHT22;8598;50.508;10.436;2022-12-08T07:03:20;2.40;99.90
16964;DHT22;8598;50.508;10.436;2022-12-08T07:05:47;2.40;99.90
16964;DHT22;8598;50.508;10.436;2022-12-08T07:08:14;2.40;99.90
16964;DHT22;8598;50.508;10.436;2022-12-08T07:10:41;2.40;99.90
16964;DHT22;8598;50.508;10.436;2022-12-08T07:13:07;2.40;99.90
16964;DHT22;8598;50.508;10.436;2022-12-08T07:15:34;2.40;99.90
16964;DHT22;8598;50.508;10.436;2022-12-08T07:18:01;2.40;99.90
16964;DHT22;8598;50.508;10.436;2022-12-08T07:20:29;2.40;99.90
16964;DHT22;8598;50.508;10.436;2022-12-08T07:22:55;2.40;99.90
16964;DHT22;8598;50.508;10.436;2022-12-08T07:25:22;2.40;99.90
16964;DHT22;8598;50.508;10.436;2022-12-08T07:27:49;2.40;99.90
16964;DHT22;8598;50.508;10.436;2022-12-08T07:30:17;2.40;99.90
16964;DHT22;8598;50.508;10.436;2022-12-08T07:32:44;2.50;99.90
16964;DHT22;8598;50.508;10.436;2022-12-08T07:35:11;2.40;99.90
16964;DHT22;8598;50.508;10.436;2022-12-08T07:37:39;2.40;99.90
16964;DHT22;8598;50.508;10.436;2022-12-08T07:40:10;2.40;99.90
16964;DHT22;8598;50.508;10.436;2022-12-08T07:42:37;2.40;99.90
16964;DHT22;8598;50.508;10.436;2022-12-08T07:45:04;2.50;99.90
16964;DHT22;8598;50.508;10.436;2022-12-08T07:47:31;2.50;99.90
16964;DHT22;8598;50.508;10.436;2022-12-08T07:49:58;2.50;99.90
16964;DHT22;8598;50.508;10.436;2022-12-08T07:52:24;2.50;99.90
16964;DHT22;8598;50.508;10.436;2022-12-08T07:54:52;2.50;99.90
16964;DHT22;8598;50.508;10.436;2022-12-08T07:57:19;2.50;99.90
16964;DHT22;8598;50.508;10.436;2022-12-08T07:59:46;2.50;99.90
16964;DHT22;8598;50.508;10.436;2022-12-08T08:02:16;2.60;99.90
16964;DHT22;8598;50.508;10.436;2022-12-08T08:04:48;2.60;99.90
16964;DHT22;8598;50.508;10.436;2022-12-08T08:07:15;2.60;99.90
16964;DHT22;8598;50.508;10.436;2022-12-08T08:09:42;2.60;99.90
16964;DHT22;8598;50.508;10.436;2022-12-08T08:12:11;2.60;99.90
16964;DHT22;8598;50.508;10.436;2022-12-08T08:14:38;2.60;99.90
16964;DHT22;8598;50.508;10.436;2022-12-08T08:17:04;2.60;99.90
16964;DHT22;8598;50.508;10.436;2022-12-08T08:19:31;2.60;99.90
16964;DHT22;8598;50.508;10.436;2022-12-08T08:21:58;2.60;99.90
16964;DHT22;8598;50.508;10.436;2022-12-08T08:24:24;2.70;99.90
16964;DHT22;8598;50.508;10.436;2022-12-08T08:26:51;2.70;99.90
16964;DHT22;8598;50.508;10.436;2022-12-08T08:29:21;2.70;99.90
16964;DHT22;8598;50.508;10.436;2022-12-08T08:31:47;2.70;99.90
16964;DHT22;8598;50.508;10.436;2022-12-08T08:34:14;2.80;99.90
16964;DHT22;8598;50.508;10.436;2022-12-08T08:36:41;2.80;99.90
16964;DHT22;8598;50.508;10.436;2022-12-08T08:39:08;2.80;99.90
16964;DHT22;8598;50.508;10.436;2022-12-08T08:41:35;2.80;99.90
16964;DHT22;8598;50.508;10.436;2022-12-08T08:44:02;2.80;99.90
16964;DHT22;8598;50.508;10.436;2022-12-08T08:46:30;2.80;99.90
16964;DHT22;8598;50.508;10.436;2022-12-08T08:48:57;2.80;99.90
16964;DHT22;8598;50.508;10.436;2022-12-08T08:51:24;2.90;99.90
16964;DHT22;8598;50.508;10.436;2022-12-08T08:53:51;2.90;99.90
16964;DHT22;8598;50.508;10.436;2022-12-08T08:56:18;2.80;99.90
16964;DHT22;8598;50.508;10.436;2022-12-08T08:58:46;2.80;99.90
16964;DHT22;8598;50.508;10.436;2022-12-08T09:01:15;2.90;99.90
16964;DHT22;8598;50.508;10.436;2022-12-08T09:03:44;3.00;99.90
16964;DHT22;8598;50.508;10.436;2022-12-08T09:06:11;3.00;99.90
16964;DHT22;8598;50.508;10.436;2022-12-08T09:08:38;3.00;99.90
16964;DHT22;8598;50.508;10.436;2022-12-08T09:11:05;3.10;99.90
16964;DHT22;8598;50.508;10.436;2022-12-08T09:13:32;3.10;99.90
16964;DHT22;8598;50.508;10.436;2022-12-08T09:15:59;3.10;99.90
16964;DHT22;8598;50.508;10.436;2022-12-08T09:18:27;3.10;99.90
16964;DHT22;8598;50.508;10.436;2022-12-08T09:21:02;3.20;99.90
16964;DHT22;8598;50.508;10.436;2022-12-08T09:23:29;3.20;99.90
16964;DHT22;8598;50.508;10.436;2022-12-08T09:25:56;3.20;99.90
16964;DHT22;8598;50.508;10.436;2022-12-08T09:28:25;3.30;99.90
16964;DHT22;8598;50.508;10.436;2022-12-08T09:30:51;3.30;99.90
16964;DHT22;8598;50.508;10.436;2022-12-08T09:33:19;2.80;99.90
16964;DHT22;8598;50.508;10.436;2022-12-08T09:35:46;3.30;99.90
16964;DHT22;8598;50.508;10.436;2022-12-08T09:38:14;3.40;99.90
16964;DHT22;8598;50.508;10.436;2022-12-08T09:40:47;3.30;99.90
16964;DHT22;8598;50.508;10.436;2022-12-08T09:43:25;3.30;99.90
16964;DHT22;8598;50.508;10.436;2022-12-08T09:45:58;3.30;99.90
16964;DHT22;8598;50.508;10.436;2022-12-08T09:48:32;3.30;99.90
16964;DHT22;8598;50.508;10.436;2022-12-08T09:51:02;3.40;99.90
16964;DHT22;8598;50.508;10.436;2022-12-08T09:53:35;3.40;99.90
16964;DHT22;8598;50.508;10.436;2022-12-08T09:56:05;3.40;99.90
16964;DHT22;8598;50.508;10.436;2022-12-08T09:58:41;3.30;99.90
16964;DHT22;8598;50.508;10.436;2022-12-08T10:01:10;3.30;99.90
16964;DHT22;8598;50.508;10.436;2022-12-08T10:03:37;3.30;99.90
16964;DHT22;8598;50.508;10.436;2022-12-08T10:06:09;3.30;99.90
16964;DHT22;8598;50.508;10.436;2022-12-08T10:08:46;3.30;99.90
16964;DHT22;8598;50.508;10.436;2022-12-08T10:11:24;3.40;99.90
16964;DHT22;8598;50.508;10.436;2022-12-08T10:13:56;3.40;99.90
16964;DHT22;8598;50.508;10.436;2022-12-08T10:16:33;3.40;99.90
16964;DHT22;8598;50.508;10.436;2022-12-08T10:19:10;3.40;99.90
16964;DHT22;8598;50.508;10.436;2022-12-08T10:21:39;3.40;99.90
16964;DHT22;8598;50.508;10.436;2022-12-08T10:24:13;3.40;99.90
16964;DHT22;8598;50.508;10.436;2022-12-08T10:26:42;3.50;99.90
16964;DHT22;8598;50.508;10.436;2022-12-08T10:29:11;3.50;99.90
16964;DHT22;8598;50.508;10.436;2022-12-08T10:31:38;3.50;99.90
16964;DHT22;8598;50.508;10.436;2022-12-08T10:34:15;3.60;99.90
16964;DHT22;8598;50.508;10.436;2022-12-08T10:36:48;3.50;99.90
16964;DHT22;8598;50.508;10.436;2022-12-08T10:39:33;3.50;99.90
16964;DHT22;8598;50.508;10.436;2022-12-08T10:42:05;3.50;99.90
16964;DHT22;8598;50.508;10.436;2022-12-08T10:44:32;3.50;99.90
16964;DHT22;8598;50.508;10.436;2022-12-08T10:47:11;3.50;99.90
16964;DHT22;8598;50.508;10.436;2022-12-08T10:49:38;3.40;99.90
16964;DHT22;8598;50.508;10.436;2022-12-08T10:52:08;3.50;99.90
16964;DHT22;8598;50.508;10.436;2022-12-08T10:54:36;3.40;99.90
16964;DHT22;8598;50.508;10.436;2022-12-08T10:57:19;3.50;99.90
16964;DHT22;8598;50.508;10.436;2022-12-08T10:59:46;3.50;99.90
16964;DHT22;8598;50.508;10.436;2022-12-08T11:02:18;3.50;99.90
16964;DHT22;8598;50.508;10.436;2022-12-08T11:04:45;3.60;99.90
16964;DHT22;8598;50.508;10.436;2022-12-08T11:07:20;3.60;99.90
16964;DHT22;8598;50.508;10.436;2022-12-08T11:09:54;3.60;99.90
16964;DHT22;8598;50.508;10.436;2022-12-08T11:12:25;3.60;99.90
16964;DHT22;8598;50.508;10.436;2022-12-08T11:14:57;3.60;99.90
16964;DHT22;8598;50.508;10.436;2022-12-08T11:17:34;3.50;99.90
16964;DHT22;8598;50.508;10.436;2022-12-08T11:20:19;4.00;99.90
16964;DHT22;8598;50.508;10.436;2022-12-08T11:22:51;3.50;99.90
16964;DHT22;8598;50.508;10.436;2022-12-08T11:25:21;3.60;99.90
16964;DHT22;8598;50.508;10.436;2022-12-08T11:27:50;3.60;99.90
16964;DHT22;8598;50.508;10.436;2022-12-08T11:30:19;3.60;99.90
16964;DHT22;8598;50.508;10.436;2022-12-08T11:32:48;3.60;99.90
16964;DHT22;8598;50.508;10.436;2022-12-08T11:35:23;3.60;99.90
16964;DHT22;8598;50.508;10.436;2022-12-08T11:37:51;3.60;99.90
16964;DHT22;8598;50.508;10.436;2022-12-08T11:40:23;3.60;99.90
16964;DHT22;8598;50.508;10.436;2022-12-08T11:42:57;3.70;99.90
16964;DHT22;8598;50.508;10.436;2022-12-08T11:45:29;3.80;99.90
16964;DHT22;8598;50.508;10.436;2022-12-08T11:48:06;3.80;99.90
16964;DHT22;8598;50.508;10.436;2022-12-08T11:50:41;4.00;99.90
16964;DHT22;8598;50.508;10.436;2022-12-08T11:53:16;4.00;99.90
16964;DHT22;8598;50.508;10.436;2022-12-08T11:55:50;4.00;99.90
16964;DHT22;8598;50.508;10.436;2022-12-08T11:58:21;4.00;99.90
16964;DHT22;8598;50.508;10.436;2022-12-08T12:00:49;4.10;99.90
16964;DHT22;8598;50.508;10.436;2022-12-08T12:03:22;4.10;99.90
16964;DHT22;8598;50.508;10.436;2022-12-08T12:06:03;4.00;99.90
16964;DHT22;8598;50.508;10.436;2022-12-08T12:08:40;4.60;99.90
16964;DHT22;8598;50.508;10.436;2022-12-08T12:11:19;4.00;99.90
16964;DHT22;8598;50.508;10.436;2022-12-08T12:14:15;4.00;99.90
16964;DHT22;8598;50.508;10.436;2022-12-08T12:16:59;3.90;99.90
16964;DHT22;8598;50.508;10.436;2022-12-08T12:19:28;3.90;99.90
16964;DHT22;8598;50.508;10.436;2022-12-08T12:22:10;4.00;99.90
16964;DHT22;8598;50.508;10.436;2022-12-08T12:24:41;3.90;99.90
16964;DHT22;8598;50.508;10.436;2022-12-08T12:27:22;3.90;99.90
16964;DHT22;8598;50.508;10.436;2022-12-08T12:29:53;3.80;99.90
16964;DHT22;8598;50.508;10.436;2022-12-08T12:32:22;3.70;99.90
16964;DHT22;8598;50.508;10.436;2022-12-08T12:34:52;3.70;99.90
16964;DHT22;8598;50.508;10.436;2022-12-08T12:37:21;3.70;99.90
16964;DHT22;8598;50.508;10.436;2022-12-08T12:39:54;3.60;99.90
16964;DHT22;8598;50.508;10.436;2022-12-08T12:42:37;3.60;99.90
16964;DHT22;8598;50.508;10.436;2022-12-08T12:45:27;3.60;99.90
16964;DHT22;8598;50.508;10.436;2022-12-08T12:48:21;3.50;99.90
16964;DHT22;8598;50.508;10.436;2022-12-08T12:50:49;3.60;99.90
16964;DHT22;8598;50.508;10.436;2022-12-08T12:53:46;3.60;99.90
16964;DHT22;8598;50.508;10.436;2022-12-08T12:56:49;3.50;99.90
16964;DHT22;8598;50.508;10.436;2022-12-08T12:59:44;3.50;99.90
16964;DHT22;8598;50.508;10.436;2022-12-08T13:02:19;3.50;99.90
16964;DHT22;8598;50.508;10.436;2022-12-08T13:04:55;3.50;99.90
16964;DHT22;8598;50.508;10.436;2022-12-08T13:07:24;3.50;99.90
16964;DHT22;8598;50.508;10.436;2022-12-08T13:09:56;3.50;99.90
16964;DHT22;8598;50.508;10.436;2022-12-08T13:12:23;3.50;99.90
16964;DHT22;8598;50.508;10.436;2022-12-08T13:14:59;3.50;99.90
16964;DHT22;8598;50.508;10.436;2022-12-08T13:17:29;3.40;99.90
16964;DHT22;8598;50.508;10.436;2022-12-08T13:19:58;3.50;99.90
16964;DHT22;8598;50.508;10.436;2022-12-08T13:22:47;3.40;99.90
16964;DHT22;8598;50.508;10.436;2022-12-08T13:25:44;3.40;99.90
16964;DHT22;8598;50.508;10.436;2022-12-08T13:28:20;3.50;99.90
16964;DHT22;8598;50.508;10.436;2022-12-08T13:30:49;3.50;99.90
16964;DHT22;8598;50.508;10.436;2022-12-08T13:33:21;3.60;99.90
16964;DHT22;8598;50.508;10.436;2022-12-08T13:36:17;3.50;99.90
16964;DHT22;8598;50.508;10.436;2022-12-08T13:38:48;3.60;99.90
16964;DHT22;8598;50.508;10.436;2022-12-08T13:41:22;3.60;99.90
16964;DHT22;8598;50.508;10.436;2022-12-08T13:43:53;3.70;99.90
16964;DHT22;8598;50.508;10.436;2022-12-08T13:46:30;3.60;99.90
16964;DHT22;8598;50.508;10.436;2022-12-08T13:49:00;3.70;99.90
16964;DHT22;8598;50.508;10.436;2022-12-08T13:51:32;3.70;99.90
16964;DHT22;8598;50.508;10.436;2022-12-08T13:54:04;3.70;99.90
16964;DHT22;8598;50.508;10.436;2022-12-08T13:56:39;3.70;99.90
16964;DHT22;8598;50.508;10.436;2022-12-08T13:59:08;3.70;99.90
16964;DHT22;8598;50.508;10.436;2022-12-08T14:01:42;3.60;99.90
16964;DHT22;8598;50.508;10.436;2022-12-08T14:04:14;3.60;99.90
16964;DHT22;8598;50.508;10.436;2022-12-08T14:06:42;3.60;99.90
16964;DHT22;8598;50.508;10.436;2022-12-08T14:09:11;3.60;99.90
16964;DHT22;8598;50.508;10.436;2022-12-08T14:11:42;3.60;99.90
16964;DHT22;8598;50.508;10.436;2022-12-08T14:14:14;3.60;99.90
16964;DHT22;8598;50.508;10.436;2022-12-08T14:16:48;3.60;99.90
16964;DHT22;8598;50.508;10.436;2022-12-08T14:19:18;3.50;99.90
16964;DHT22;8598;50.508;10.436;2022-12-08T14:21:46;3.50;99.90
16964;DHT22;8598;50.508;10.436;2022-12-08T14:24:13;3.50;99.90
16964;DHT22;8598;50.508;10.436;2022-12-08T14:26:40;3.50;99.90
16964;DHT22;8598;50.508;10.436;2022-12-08T14:29:07;3.40;99.90
16964;DHT22;8598;50.508;10.436;2022-12-08T14:31:34;3.40;99.90
16964;DHT22;8598;50.508;10.436;2022-12-08T14:34:02;3.40;99.90
16964;DHT22;8598;50.508;10.436;2022-12-08T14:36:29;3.40;99.90
16964;DHT22;8598;50.508;10.436;2022-12-08T14:38:58;3.50;99.90
16964;DHT22;8598;50.508;10.436;2022-12-08T14:41:26;3.40;99.90
16964;DHT22;8598;50.508;10.436;2022-12-08T14:43:58;3.40;99.90
16964;DHT22;8598;50.508;10.436;2022-12-08T14:46:26;3.30;99.90
16964;DHT22;8598;50.508;10.436;2022-12-08T14:48:53;3.40;99.90
16964;DHT22;8598;50.508;10.436;2022-12-08T14:51:27;3.30;99.90
16964;DHT22;8598;50.508;10.436;2022-12-08T14:53:56;3.30;99.90
16964;DHT22;8598;50.508;10.436;2022-12-08T14:56:30;3.20;99.90
16964;DHT22;8598;50.508;10.436;2022-12-08T14:59:06;3.20;99.90
16964;DHT22;8598;50.508;10.436;2022-12-08T15:01:38;3.20;99.90
16964;DHT22;8598;50.508;10.436;2022-12-08T15:04:08;3.10;99.90
16964;DHT22;8598;50.508;10.436;2022-12-08T15:06:49;3.10;99.90
16964;DHT22;8598;50.508;10.436;2022-12-08T15:09:26;3.10;99.90
16964;DHT22;8598;50.508;10.436;2022-12-08T15:11:59;3.10;99.90
16964;DHT22;8598;50.508;10.436;2022-12-08T15:14:30;3.10;99.90
16964;DHT22;8598;50.508;10.436;2022-12-08T15:16:57;3.10;99.90
16964;DHT22;8598;50.508;10.436;2022-12-08T15:19:27;3.00;99.90
16964;DHT22;8598;50.508;10.436;2022-12-08T15:21:57;3.00;99.90
16964;DHT22;8598;50.508;10.436;2022-12-08T15:24:26;3.00;99.90
16964;DHT22;8598;50.508;10.436;2022-12-08T15:26:55;3.00;99.90
16964;DHT22;8598;50.508;10.436;2022-12-08T15:29:24;2.90;99.90
16964;DHT22;8598;50.508;10.436;2022-12-08T15:31:52;2.00;99.90
16964;DHT22;8598;50.508;10.436;2022-12-08T15:34:20;2.90;99.90
16964;DHT22;8598;50.508;10.436;2022-12-08T15:36:48;2.90;99.90
16964;DHT22;8598;50.508;10.436;2022-12-08T15:39:27;2.90;99.90
16964;DHT22;8598;50.508;10.436;2022-12-08T15:41:55;3.00;99.90
16964;DHT22;8598;50.508;10.436;2022-12-08T15:44:22;2.90;99.90
16964;DHT22;8598;50.508;10.436;2022-12-08T15:46:49;2.90;99.90
16964;DHT22;8598;50.508;10.436;2022-12-08T15:49:17;2.90;99.90
16964;DHT22;8598;50.508;10.436;2022-12-08T15:51:45;2.90;99.90
16964;DHT22;8598;50.508;10.436;2022-12-08T15:54:12;2.90;99.90
16964;DHT22;8598;50.508;10.436;2022-12-08T15:56:43;2.90;99.90
16964;DHT22;8598;50.508;10.436;2022-12-08T15:59:13;2.90;99.90
16964;DHT22;8598;50.508;10.436;2022-12-08T16:01:41;2.90;99.90
16964;DHT22;8598;50.508;10.436;2022-12-08T16:04:12;2.90;99.90
16964;DHT22;8598;50.508;10.436;2022-12-08T16:06:40;2.80;99.90